Time;durP1;ratioP1;P1;durP2;ratioP2;P2;SDS_P1;SDS_P2;PMS_P1;PMS_P2;Temp;Humidity;BMP_temperature;BMP_pressure;BME280_temperature;BME280_humidity;BME280_pressure;Samples;Min_cycle;Max_cycle;Signal;HPM_P1;HPM_P2
2021/03/21 00:00:42;;;;;;;;;;;5.20;70.20;;;;;;4968297;28;20573;-73
2021/03/21 00:03:10;;;;;;;;;;;5.30;70.90;;;;;;4969214;28;19925;-73
2021/03/21 00:05:37;;;;;;;;;;;5.30;71.00;;;;;;4968644;28;19933;-73
2021/03/21 00:08:07;;;;;;;;;;;5.30;71.90;;;;;;4950696;28;19914;-73
2021/03/21 00:10:35;;;;;;;;;;;5.30;71.60;;;;;;4967464;28;19913;-73
2021/03/21 00:13:03;;;;;;;;;;;5.30;71.80;;;;;;4968326;28;20009;-73
2021/03/21 00:15:28;;;;;;;;;;;5.30;72.30;;;;;;4930430;28;19913;-73
2021/03/21 00:17:54;;;;;;;;;;;5.30;71.80;;;;;;4945973;28;19910;-73
2021/03/21 00:20:21;;;;;;;;;;;5.30;72.20;;;;;;4967644;28;19914;-73
2021/03/21 00:22:48;;;;;;;;;;;5.30;72.30;;;;;;4968689;28;19910;-73
2021/03/21 00:25:15;;;;;;;;;;;5.30;73.10;;;;;;4969804;28;19918;-73
2021/03/21 00:27:41;;;;;;;;;;;5.30;72.70;;;;;;4967262;28;20371;-73
2021/03/21 00:30:07;;;;;;;;;;;5.30;74.20;;;;;;4947155;28;19910;-73
2021/03/21 00:32:33;;;;;;;;;;;5.30;73.70;;;;;;4935552;28;19910;-73
2021/03/21 00:34:58;;;;;;;;;;;5.30;74.20;;;;;;4950678;28;20001;-73
2021/03/21 00:37:24;;;;;;;;;;;5.30;73.50;;;;;;4950631;28;19925;-73
2021/03/21 00:39:49;;;;;;;;;;;5.30;74.60;;;;;;4967275;28;19925;-73
2021/03/21 00:42:15;;;;;;;;;;;5.30;74.20;;;;;;4951680;28;19914;-73
2021/03/21 00:44:42;;;;;;;;;;;5.30;74.10;;;;;;4968766;28;20388;-73
2021/03/21 00:47:08;;;;;;;;;;;5.30;75.70;;;;;;4950654;28;19921;-72
2021/03/21 00:49:36;;;;;;;;;;;5.20;75.10;;;;;;4968524;28;20383;-72
2021/03/21 00:52:01;;;;;;;;;;;5.20;74.80;;;;;;4948596;28;19920;-73
2021/03/21 00:54:29;;;;;;;;;;;5.20;74.50;;;;;;4967710;28;19913;-73
2021/03/21 00:56:55;;;;;;;;;;;5.20;75.20;;;;;;4967325;28;19910;-73
2021/03/21 00:59:23;;;;;;;;;;;5.20;74.90;;;;;;4969563;28;19965;-73
2021/03/21 01:01:48;;;;;;;;;;;5.20;74.70;;;;;;4969092;28;19972;-73
2021/03/21 01:04:14;;;;;;;;;;;5.30;75.70;;;;;;4971616;28;19945;-73
2021/03/21 01:06:39;;;;;;;;;;;5.20;73.70;;;;;;4971400;28;19940;-73
2021/03/21 01:09:07;;;;;;;;;;;5.20;76.70;;;;;;4971683;28;19918;-73
2021/03/21 01:11:33;;;;;;;;;;;5.20;75.00;;;;;;4971479;28;19918;-73
2021/03/21 01:13:59;;;;;;;;;;;5.10;74.10;;;;;;4954739;28;20488;-73
2021/03/21 01:16:25;;;;;;;;;;;5.10;75.70;;;;;;4937518;28;19964;-73
2021/03/21 01:18:51;;;;;;;;;;;5.10;74.00;;;;;;4972805;28;20283;-73
2021/03/21 01:21:17;;;;;;;;;;;5.00;74.40;;;;;;4954743;28;19914;-73
2021/03/21 01:23:43;;;;;;;;;;;5.10;73.90;;;;;;4954821;28;19960;-73
2021/03/21 01:26:12;;;;;;;;;;;5.10;74.70;;;;;;4970692;28;20060;-72
2021/03/21 01:28:40;;;;;;;;;;;5.00;72.70;;;;;;4971480;28;20467;-73
2021/03/21 01:31:07;;;;;;;;;;;5.10;71.80;;;;;;4950229;28;19965;-73
2021/03/21 01:33:32;;;;;;;;;;;5.00;72.10;;;;;;4955004;28;19918;-73
2021/03/21 01:36:00;;;;;;;;;;;5.10;72.30;;;;;;4971846;28;20390;-73
2021/03/21 01:38:26;;;;;;;;;;;5.00;71.80;;;;;;4972088;28;19921;-73
2021/03/21 01:40:55;;;;;;;;;;;5.00;72.20;;;;;;4971351;28;20252;-73
2021/03/21 01:43:25;;;;;;;;;;;5.00;72.40;;;;;;4948948;28;19910;-73
2021/03/21 01:45:50;;;;;;;;;;;4.90;71.90;;;;;;4951429;28;19976;-73
2021/03/21 01:48:18;;;;;;;;;;;5.00;72.10;;;;;;4971587;28;19914;-73
2021/03/21 01:50:44;;;;;;;;;;;5.00;71.90;;;;;;4971603;28;19910;-73
2021/03/21 01:53:12;;;;;;;;;;;5.00;72.70;;;;;;4972365;28;20406;-73
2021/03/21 01:55:39;;;;;;;;;;;5.00;72.80;;;;;;4949433;28;19918;-73
2021/03/21 01:58:05;;;;;;;;;;;5.00;73.40;;;;;;4954777;28;20016;-73
2021/03/21 02:00:35;;;;;;;;;;;5.00;73.40;;;;;;4972077;28;19982;-73
2021/03/21 02:03:01;;;;;;;;;;;5.00;73.00;;;;;;4952936;28;19929;-74
2021/03/21 02:05:26;;;;;;;;;;;5.00;72.70;;;;;;4970154;28;19914;-73
2021/03/21 02:07:55;;;;;;;;;;;5.00;73.40;;;;;;4970643;28;20252;-73
2021/03/21 02:10:40;;;;;;;;;;;5.00;73.30;;;;;;4950657;28;19917;-73
2021/03/21 02:13:07;;;;;;;;;;;5.00;73.40;;;;;;4970446;28;20364;-73
2021/03/21 02:15:51;;;;;;;;;;;5.00;73.50;;;;;;4971251;28;19910;-73
2021/03/21 02:18:36;;;;;;;;;;;5.10;73.60;;;;;;4971704;28;19918;-73
2021/03/21 02:21:20;;;;;;;;;;;5.10;73.60;;;;;;4970143;28;20030;-73
2021/03/21 02:24:06;;;;;;;;;;;5.10;73.30;;;;;;4970635;28;19977;-72
2021/03/21 02:26:33;;;;;;;;;;;5.10;73.40;;;;;;4970795;28;20336;-73
2021/03/21 02:29:31;;;;;;;;;;;5.20;74.40;;;;;;4971576;28;19921;-73
2021/03/21 02:32:05;;;;;;;;;;;5.20;74.70;;;;;;4925382;28;20005;-73
2021/03/21 02:34:40;;;;;;;;;;;5.20;74.20;;;;;;4950291;28;19933;-73
2021/03/21 02:37:08;;;;;;;;;;;5.30;74.70;;;;;;4971344;28;19910;-73
2021/03/21 02:39:40;;;;;;;;;;;5.30;73.50;;;;;;4970554;28;20832;-73
2021/03/21 02:42:15;;;;;;;;;;;5.30;74.20;;;;;;4952810;28;19910;-73
2021/03/21 02:44:44;;;;;;;;;;;5.40;73.80;;;;;;4953074;28;20032;-73
2021/03/21 02:47:13;;;;;;;;;;;5.40;73.70;;;;;;4951784;28;19913;-74
2021/03/21 02:49:42;;;;;;;;;;;5.40;73.50;;;;;;4951736;28;19910;-74
2021/03/21 02:52:29;;;;;;;;;;;5.40;74.80;;;;;;4932186;28;20385;-74
2021/03/21 02:55:14;;;;;;;;;;;5.40;75.30;;;;;;4971132;28;19910;-73
2021/03/21 02:57:48;;;;;;;;;;;5.50;74.50;;;;;;4969582;28;19920;-73
2021/03/21 03:00:14;;;;;;;;;;;5.40;74.10;;;;;;4970572;28;19929;-73
2021/03/21 03:02:44;;;;;;;;;;;5.50;73.40;;;;;;4952887;28;20263;-73
2021/03/21 03:05:15;;;;;;;;;;;5.40;75.50;;;;;;4947482;28;19983;-72
2021/03/21 03:07:47;;;;;;;;;;;5.50;75.70;;;;;;4969655;28;21765;-74
2021/03/21 03:10:14;;;;;;;;;;;5.50;76.80;;;;;;4970716;28;19925;-74
2021/03/21 03:12:41;;;;;;;;;;;5.50;76.40;;;;;;4953193;28;19989;-73
2021/03/21 03:15:08;;;;;;;;;;;5.50;76.80;;;;;;4970045;28;19910;-73
2021/03/21 03:17:38;;;;;;;;;;;5.40;77.20;;;;;;4947017;28;19914;-73
2021/03/21 03:20:24;;;;;;;;;;;5.40;77.10;;;;;;4970223;28;19965;-73
2021/03/21 03:23:07;;;;;;;;;;;5.30;77.10;;;;;;4970331;28;19914;-73
2021/03/21 03:25:40;;;;;;;;;;;5.30;77.80;;;;;;4952530;28;19942;-73
2021/03/21 03:28:06;;;;;;;;;;;5.20;78.50;;;;;;4969360;28;19996;-73
2021/03/21 03:30:34;;;;;;;;;;;5.20;77.70;;;;;;4969696;28;20550;-73
2021/03/21 03:33:00;;;;;;;;;;;5.10;79.30;;;;;;4952106;28;19910;-73
2021/03/21 03:35:30;;;;;;;;;;;5.10;78.20;;;;;;4969761;28;19925;-74
2021/03/21 03:37:56;;;;;;;;;;;5.20;78.90;;;;;;4936331;28;19982;-73
2021/03/21 03:40:21;;;;;;;;;;;5.10;80.70;;;;;;4970320;28;19914;-74
2021/03/21 03:42:58;;;;;;;;;;;5.20;80.30;;;;;;4951763;28;19925;-73
2021/03/21 03:45:44;;;;;;;;;;;5.20;81.50;;;;;;4969430;28;20056;-74
2021/03/21 03:48:27;;;;;;;;;;;5.20;82.30;;;;;;4969857;28;19918;-74
2021/03/21 03:51:11;;;;;;;;;;;5.20;82.00;;;;;;4969745;28;19957;-73
2021/03/21 03:53:52;;;;;;;;;;;5.20;83.30;;;;;;4969285;28;19928;-73
2021/03/21 03:56:46;;;;;;;;;;;5.20;83.10;;;;;;4969847;28;20822;-74
2021/03/21 03:59:30;;;;;;;;;;;5.30;83.60;;;;;;4952192;28;19918;-73
2021/03/21 04:01:56;;;;;;;;;;;5.20;83.00;;;;;;4969919;28;20081;-73
2021/03/21 04:04:40;;;;;;;;;;;5.20;85.30;;;;;;4969028;28;20419;-73
2021/03/21 04:07:23;;;;;;;;;;;5.10;87.80;;;;;;4969134;28;20068;-73
2021/03/21 04:09:52;;;;;;;;;;;5.10;90.20;;;;;;4948019;28;19993;-73
2021/03/21 04:12:29;;;;;;;;;;;5.20;90.10;;;;;;4968774;28;20023;-73
2021/03/21 04:15:05;;;;;;;;;;;5.20;90.00;;;;;;4952007;28;19918;-73
2021/03/21 04:17:37;;;;;;;;;;;5.20;90.00;;;;;;4969063;28;19964;-73
2021/03/21 04:20:07;;;;;;;;;;;5.20;88.40;;;;;;4968333;28;20525;-73
2021/03/21 04:22:41;;;;;;;;;;;5.30;89.70;;;;;;4951581;28;19914;-74
2021/03/21 04:25:10;;;;;;;;;;;5.20;89.50;;;;;;4950531;28;19989;-73
2021/03/21 04:27:39;;;;;;;;;;;5.20;90.50;;;;;;4968323;28;19922;-74
2021/03/21 04:30:13;;;;;;;;;;;5.30;91.10;;;;;;4948150;28;20426;-74
2021/03/21 04:32:46;;;;;;;;;;;5.30;92.00;;;;;;4968834;28;19985;-73
2021/03/21 04:35:17;;;;;;;;;;;5.30;91.20;;;;;;4947955;28;19921;-73
2021/03/21 04:37:43;;;;;;;;;;;5.30;93.30;;;;;;4946798;28;19914;-73
2021/03/21 04:40:09;;;;;;;;;;;5.30;90.40;;;;;;4955929;28;19964;-73
2021/03/21 04:42:39;;;;;;;;;;;5.30;92.20;;;;;;4952365;28;19910;-73
2021/03/21 04:45:11;;;;;;;;;;;5.30;91.60;;;;;;4940849;28;19917;-73
2021/03/21 04:47:44;;;;;;;;;;;5.30;92.10;;;;;;4955701;28;19918;-74
2021/03/21 04:50:10;;;;;;;;;;;5.20;92.80;;;;;;4952268;28;19940;-73
2021/03/21 04:52:39;;;;;;;;;;;5.20;93.10;;;;;;4972355;28;20233;-73
2021/03/21 04:55:05;;;;;;;;;;;5.20;92.60;;;;;;4972149;28;20243;-73
2021/03/21 04:57:31;;;;;;;;;;;5.20;95.00;;;;;;4954191;28;19946;-73
2021/03/21 04:59:59;;;;;;;;;;;5.10;95.00;;;;;;4971820;28;19925;-73
2021/03/21 05:02:27;;;;;;;;;;;5.10;96.00;;;;;;4951315;28;19921;-73
2021/03/21 05:04:54;;;;;;;;;;;5.20;95.00;;;;;;4955750;28;19918;-72
2021/03/21 05:07:30;;;;;;;;;;;5.10;94.20;;;;;;4952308;28;20559;-74
2021/03/21 05:10:16;;;;;;;;;;;5.10;99.90;;;;;;4951276;28;19910;-74
2021/03/21 05:12:47;;;;;;;;;;;5.10;99.90;;;;;;4936146;28;19921;-74
2021/03/21 05:15:26;;;;;;;;;;;5.10;99.90;;;;;;4951358;28;19941;-74
2021/03/21 05:17:51;;;;;;;;;;;5.10;99.90;;;;;;4955175;28;19910;-74
2021/03/21 05:20:25;;;;;;;;;;;5.10;98.80;;;;;;4955178;28;19926;-74
2021/03/21 05:23:10;;;;;;;;;;;5.10;99.20;;;;;;4967712;28;19920;-73
2021/03/21 05:25:43;;;;;;;;;;;5.10;99.90;;;;;;4971009;28;20001;-73
2021/03/21 05:28:17;;;;;;;;;;;5.10;99.90;;;;;;4933446;28;19922;-74
2021/03/21 05:30:43;;;;;;;;;;;5.10;99.90;;;;;;4971734;28;19917;-73
2021/03/21 05:33:08;;;;;;;;;;;5.10;99.90;;;;;;4955239;28;20267;-73
2021/03/21 05:35:35;;;;;;;;;;;5.10;99.90;;;;;;4970677;28;19917;-73
2021/03/21 05:38:07;;;;;;;;;;;5.10;99.90;;;;;;4953262;28;19937;-74
2021/03/21 05:40:32;;;;;;;;;;;5.10;99.90;;;;;;4972683;28;19918;-73
2021/03/21 05:43:16;;;;;;;;;;;5.10;99.90;;;;;;4971225;28;19917;-73
2021/03/21 05:45:57;;;;;;;;;;;5.00;99.90;;;;;;4970635;28;19925;-74
2021/03/21 05:48:23;;;;;;;;;;;5.10;99.90;;;;;;4971824;28;21439;-73
2021/03/21 05:51:03;;;;;;;;;;;5.00;99.90;;;;;;4970587;28;20347;-73
2021/03/21 05:53:48;;;;;;;;;;;5.00;99.90;;;;;;4971841;28;21266;-73
2021/03/21 05:56:13;;;;;;;;;;;5.00;99.90;;;;;;4972104;28;20395;-73
2021/03/21 05:58:54;;;;;;;;;;;5.00;99.90;;;;;;4972270;28;19914;-73
2021/03/21 06:01:40;;;;;;;;;;;5.10;99.90;;;;;;4971955;28;19953;-73
2021/03/21 06:04:19;;;;;;;;;;;5.00;99.90;;;;;;4971124;28;19950;-73
2021/03/21 06:07:03;;;;;;;;;;;5.00;99.90;;;;;;4971456;28;19932;-73
2021/03/21 06:09:37;;;;;;;;;;;5.10;99.90;;;;;;4971359;28;19921;-73
2021/03/21 06:12:08;;;;;;;;;;;5.00;99.90;;;;;;4971083;28;20009;-73
2021/03/21 06:14:52;;;;;;;;;;;5.10;99.90;;;;;;4971282;28;19910;-73
2021/03/21 06:17:39;;;;;;;;;;;5.10;99.90;;;;;;4971219;28;19949;-74
2021/03/21 06:20:14;;;;;;;;;;;5.10;99.90;;;;;;4971167;28;19968;-74
2021/03/21 06:22:48;;;;;;;;;;;5.10;99.90;;;;;;4953943;28;19922;-73
2021/03/21 06:25:16;;;;;;;;;;;5.10;99.90;;;;;;4971099;28;19921;-73
2021/03/21 06:27:41;;;;;;;;;;;5.10;99.90;;;;;;4953508;28;20547;-74
2021/03/21 06:30:13;;;;;;;;;;;5.10;99.90;;;;;;4970587;28;19910;-74
2021/03/21 06:32:42;;;;;;;;;;;5.10;99.90;;;;;;4971302;28;19921;-73
2021/03/21 06:35:20;;;;;;;;;;;5.10;99.90;;;;;;4954089;28;19910;-73
2021/03/21 06:38:04;;;;;;;;;;;5.10;99.90;;;;;;4970181;28;20085;-73
2021/03/21 06:40:48;;;;;;;;;;;5.10;99.90;;;;;;4969994;28;19989;-73
2021/03/21 06:43:27;;;;;;;;;;;5.20;99.90;;;;;;4970357;28;20765;-73
2021/03/21 06:46:02;;;;;;;;;;;5.10;99.90;;;;;;4953078;28;20024;-74
2021/03/21 06:48:31;;;;;;;;;;;5.10;99.90;;;;;;4951912;28;20081;-74
2021/03/21 06:51:10;;;;;;;;;;;5.20;99.90;;;;;;4970833;28;19941;-74
2021/03/21 06:53:48;;;;;;;;;;;5.20;99.90;;;;;;4970173;28;20049;-74
2021/03/21 06:56:16;;;;;;;;;;;5.20;99.90;;;;;;4970434;28;20360;-74
2021/03/21 06:58:45;;;;;;;;;;;5.30;99.90;;;;;;4969264;28;19915;-74
2021/03/21 07:01:35;;;;;;;;;;;5.30;99.90;;;;;;4969784;28;19964;-73
2021/03/21 07:04:04;;;;;;;;;;;5.30;99.90;;;;;;4933405;28;20431;-74
2021/03/21 07:06:48;;;;;;;;;;;5.30;99.90;;;;;;4951720;28;19961;-74
2021/03/21 07:09:20;;;;;;;;;;;5.30;99.90;;;;;;4970108;28;19910;-73
2021/03/21 07:11:45;;;;;;;;;;;5.30;99.90;;;;;;4969096;28;19920;-74
2021/03/21 07:14:29;;;;;;;;;;;5.30;99.90;;;;;;4969248;28;20004;-74
2021/03/21 07:17:10;;;;;;;;;;;5.40;99.90;;;;;;4969017;28;19922;-74
2021/03/21 07:19:54;;;;;;;;;;;5.40;99.90;;;;;;4969882;28;20443;-74
2021/03/21 07:22:20;;;;;;;;;;;5.50;99.90;;;;;;4969651;28;20008;-74
2021/03/21 07:24:52;;;;;;;;;;;5.50;99.90;;;;;;4969479;28;19973;-74
2021/03/21 07:27:24;;;;;;;;;;;5.50;99.90;;;;;;4950592;28;19914;-74
2021/03/21 07:29:50;;;;;;;;;;;5.50;99.90;;;;;;4969869;28;20124;-74
2021/03/21 07:32:18;;;;;;;;;;;5.40;99.90;;;;;;4948801;28;19973;-74
2021/03/21 07:35:02;;;;;;;;;;;5.40;99.90;;;;;;4970100;28;19928;-74
2021/03/21 07:37:40;;;;;;;;;;;5.40;99.90;;;;;;4969703;28;19973;-74
2021/03/21 07:40:10;;;;;;;;;;;5.50;99.90;;;;;;4969491;28;20347;-74
2021/03/21 07:42:54;;;;;;;;;;;5.50;99.90;;;;;;4935471;28;19917;-74
2021/03/21 07:45:27;;;;;;;;;;;5.50;99.90;;;;;;4969286;28;19929;-74
2021/03/21 07:47:53;;;;;;;;;;;5.50;99.90;;;;;;4964603;28;19922;-74
2021/03/21 07:50:20;;;;;;;;;;;5.60;99.90;;;;;;4969440;28;19909;-74
2021/03/21 07:52:52;;;;;;;;;;;5.50;99.90;;;;;;4947931;28;19921;-74
2021/03/21 07:55:32;;;;;;;;;;;5.60;99.90;;;;;;4947496;28;19932;-74
2021/03/21 07:58:02;;;;;;;;;;;5.60;99.90;;;;;;4948675;28;19910;-73
2021/03/21 08:00:28;;;;;;;;;;;5.60;99.90;;;;;;4936524;28;19921;-73
2021/03/21 08:03:14;;;;;;;;;;;5.70;99.90;;;;;;4969873;28;19910;-74
2021/03/21 08:05:40;;;;;;;;;;;5.60;99.90;;;;;;4969301;28;19925;-73
2021/03/21 08:08:10;;;;;;;;;;;5.70;99.90;;;;;;4952731;28;19933;-74
2021/03/21 08:10:36;;;;;;;;;;;5.70;99.90;;;;;;4949013;28;20401;-73
2021/03/21 08:13:07;;;;;;;;;;;5.80;99.90;;;;;;4950900;28;20267;-74
2021/03/21 08:15:34;;;;;;;;;;;5.80;99.90;;;;;;4952163;28;19918;-74
2021/03/21 08:18:00;;;;;;;;;;;5.90;99.90;;;;;;4948023;28;19948;-74
2021/03/21 08:20:52;;;;;;;;;;;6.00;99.90;;;;;;4947645;28;19914;-74
2021/03/21 08:23:18;;;;;;;;;;;6.10;99.90;;;;;;4947856;28;20021;-74
2021/03/21 08:25:44;;;;;;;;;;;6.20;99.90;;;;;;4968399;28;20030;-74
2021/03/21 08:28:14;;;;;;;;;;;6.20;99.90;;;;;;4968612;28;19914;-74
2021/03/21 08:30:45;;;;;;;;;;;6.20;99.90;;;;;;4951321;28;19976;-74
2021/03/21 08:33:11;;;;;;;;;;;6.30;99.90;;;;;;4951236;28;19910;-74
2021/03/21 08:35:39;;;;;;;;;;;6.30;99.90;;;;;;4952120;28;20013;-74
2021/03/21 08:38:15;;;;;;;;;;;6.30;99.90;;;;;;4969536;28;19921;-73
2021/03/21 08:40:40;;;;;;;;;;;6.40;99.90;;;;;;4935177;28;19946;-74
2021/03/21 08:43:18;;;;;;;;;;;6.50;99.90;;;;;;4935351;28;20023;-74
2021/03/21 08:45:49;;;;;;;;;;;6.50;99.90;;;;;;4951123;28;19921;-74
2021/03/21 08:48:16;;;;;;;;;;;6.50;99.90;;;;;;4951294;28;19925;-74
2021/03/21 08:50:46;;;;;;;;;;;6.50;99.90;;;;;;4969214;28;20057;-74
2021/03/21 08:53:30;;;;;;;;;;;6.50;99.90;;;;;;4932088;28;20004;-74
2021/03/21 08:56:09;;;;;;;;;;;6.50;99.90;;;;;;4947932;28;19914;-74
2021/03/21 08:58:35;;;;;;;;;;;6.50;99.90;;;;;;4952094;28;19921;-74
2021/03/21 09:01:08;;;;;;;;;;;6.50;99.90;;;;;;4968430;28;19918;-75
2021/03/21 09:03:36;;;;;;;;;;;6.50;99.90;;;;;;4947774;28;19976;-75
2021/03/21 09:06:03;;;;;;;;;;;6.50;99.90;;;;;;4968867;28;19929;-74
2021/03/21 09:08:32;;;;;;;;;;;6.50;99.90;;;;;;4969409;28;19921;-74
2021/03/21 09:11:00;;;;;;;;;;;6.60;99.90;;;;;;4951482;28;20371;-74
2021/03/21 09:13:31;;;;;;;;;;;6.60;99.90;;;;;;4969058;28;19918;-74
2021/03/21 09:15:57;;;;;;;;;;;6.70;99.90;;;;;;4968418;28;20033;-74
2021/03/21 09:18:30;;;;;;;;;;;6.70;99.90;;;;;;4967950;28;19997;-74
2021/03/21 09:20:56;;;;;;;;;;;6.80;99.90;;;;;;4950672;28;19914;-74
2021/03/21 09:23:31;;;;;;;;;;;6.80;99.90;;;;;;4950967;28;19999;-74
2021/03/21 09:25:57;;;;;;;;;;;6.70;99.90;;;;;;4971664;28;19945;-74
2021/03/21 09:28:23;;;;;;;;;;;6.80;99.90;;;;;;4954440;28;19980;-74
2021/03/21 09:30:49;;;;;;;;;;;6.80;99.90;;;;;;4954917;28;19914;-74
2021/03/21 09:33:16;;;;;;;;;;;6.90;99.90;;;;;;4936351;28;19910;-74
2021/03/21 09:35:43;;;;;;;;;;;6.90;99.90;;;;;;4970344;28;19925;-74
2021/03/21 09:38:12;;;;;;;;;;;7.00;99.90;;;;;;4954360;28;20441;-74
2021/03/21 09:40:41;;;;;;;;;;;7.10;99.90;;;;;;4954530;28;20004;-74
2021/03/21 09:43:15;;;;;;;;;;;7.20;99.90;;;;;;4970892;28;20012;-74
2021/03/21 09:45:42;;;;;;;;;;;7.20;99.90;;;;;;4953519;28;20438;-74
2021/03/21 09:48:12;;;;;;;;;;;7.30;99.90;;;;;;4971581;28;19921;-74
2021/03/21 09:50:38;;;;;;;;;;;7.30;99.90;;;;;;4950465;28;19910;-73
2021/03/21 09:53:22;;;;;;;;;;;7.30;99.90;;;;;;4954260;28;19933;-74
2021/03/21 09:55:48;;;;;;;;;;;7.40;99.90;;;;;;4952279;28;19937;-72
2021/03/21 09:58:32;;;;;;;;;;;7.50;99.90;;;;;;4952484;28;20471;-76
2021/03/21 10:00:59;;;;;;;;;;;7.50;99.90;;;;;;4971178;28;19957;-75
2021/03/21 10:03:34;;;;;;;;;;;7.60;99.90;;;;;;4934403;28;19921;-73
2021/03/21 10:06:02;;;;;;;;;;;7.70;99.90;;;;;;4952624;28;19914;-72
2021/03/21 10:08:43;;;;;;;;;;;7.80;99.90;;;;;;4970326;28;19918;-74
2021/03/21 10:11:09;;;;;;;;;;;7.90;99.90;;;;;;4970611;28;20336;-73
2021/03/21 10:13:35;;;;;;;;;;;7.90;99.90;;;;;;4949609;28;19972;-74
2021/03/21 10:16:13;;;;;;;;;;;8.00;99.90;;;;;;4966798;28;19914;-75
2021/03/21 10:18:42;;;;;;;;;;;8.10;99.90;;;;;;4952141;28;19972;-73
2021/03/21 10:21:08;;;;;;;;;;;8.10;99.90;;;;;;4948374;28;19922;-73
2021/03/21 10:23:50;;;;;;;;;;;8.20;99.90;;;;;;4950977;28;19913;-74
2021/03/21 10:26:22;;;;;;;;;;;8.20;99.90;;;;;;4969438;28;19910;-73
2021/03/21 10:28:48;;;;;;;;;;;8.20;99.90;;;;;;4969894;28;19922;-73
2021/03/21 10:31:27;;;;;;;;;;;8.30;99.90;;;;;;4953292;28;19922;-74
2021/03/21 10:33:53;;;;;;;;;;;8.30;99.90;;;;;;4969074;28;19918;-73
2021/03/21 10:36:37;;;;;;;;;;;8.30;99.90;;;;;;4969047;28;19917;-74
2021/03/21 10:39:05;;;;;;;;;;;8.40;99.90;;;;;;4970973;28;19918;-73
2021/03/21 10:41:52;;;;;;;;;;;8.40;99.50;;;;;;4952313;28;19921;-74
2021/03/21 10:44:30;;;;;;;;;;;8.40;99.90;;;;;;4968609;28;19973;-73
2021/03/21 10:46:56;;;;;;;;;;;8.40;97.50;;;;;;4948774;28;19922;-74
2021/03/21 10:49:40;;;;;;;;;;;8.30;97.00;;;;;;4952871;28;19993;-74
2021/03/21 10:52:09;;;;;;;;;;;8.20;97.90;;;;;;4970388;28;19918;-73
2021/03/21 10:54:34;;;;;;;;;;;8.30;97.70;;;;;;4967048;28;19918;-74
2021/03/21 10:57:18;;;;;;;;;;;8.30;99.40;;;;;;4967692;28;19918;-74
2021/03/21 11:00:04;;;;;;;;;;;8.40;98.00;;;;;;4949080;28;19918;-73
2021/03/21 11:02:30;;;;;;;;;;;8.50;99.90;;;;;;4954798;28;19918;-73
2021/03/21 11:05:02;;;;;;;;;;;8.70;97.10;;;;;;4949852;28;19913;-74
2021/03/21 11:07:30;;;;;;;;;;;8.80;94.90;;;;;;4966670;28;19924;-72
2021/03/21 11:10:00;;;;;;;;;;;8.70;94.30;;;;;;4952475;28;19971;-73
2021/03/21 11:12:29;;;;;;;;;;;8.70;94.60;;;;;;4949470;28;19910;-74
2021/03/21 11:14:55;;;;;;;;;;;8.80;96.90;;;;;;4967481;28;19910;-73
2021/03/21 11:17:21;;;;;;;;;;;8.90;92.90;;;;;;4964571;28;20354;-73
2021/03/21 11:19:55;;;;;;;;;;;8.90;92.10;;;;;;4932640;28;19918;-74
2021/03/21 11:22:20;;;;;;;;;;;8.90;93.30;;;;;;4966414;28;19973;-73
2021/03/21 11:24:46;;;;;;;;;;;9.00;91.80;;;;;;4601469;28;9999589;-74
2021/03/21 11:27:12;;;;;;;;;;;9.00;90.10;;;;;;4963453;28;19925;-74
2021/03/21 11:29:39;;;;;;;;;;;9.10;91.40;;;;;;4946854;28;20017;-74
2021/03/21 11:32:13;;;;;;;;;;;9.20;90.30;;;;;;4931151;28;19968;-74
2021/03/21 11:34:38;;;;;;;;;;;9.20;86.90;;;;;;4963668;28;20033;-73
2021/03/21 11:37:08;;;;;;;;;;;9.30;89.60;;;;;;4944680;28;20415;-73
2021/03/21 11:39:41;;;;;;;;;;;9.30;90.50;;;;;;4965902;28;20403;-73
2021/03/21 11:42:33;;;;;;;;;;;9.40;90.20;;;;;;4965315;28;19932;-74
2021/03/21 11:45:14;;;;;;;;;;;9.30;89.20;;;;;;4962052;28;19924;-74
2021/03/21 11:47:40;;;;;;;;;;;9.30;87.70;;;;;;4963438;28;19918;-74
2021/03/21 11:50:06;;;;;;;;;;;9.30;85.50;;;;;;4964545;28;19914;-72
2021/03/21 11:52:31;;;;;;;;;;;9.40;87.70;;;;;;4941818;28;19914;-73
2021/03/21 11:54:59;;;;;;;;;;;9.40;86.20;;;;;;4930931;28;19917;-75
2021/03/21 11:57:37;;;;;;;;;;;9.40;86.50;;;;;;4946957;28;19914;-75
2021/03/21 12:00:06;;;;;;;;;;;9.40;90.00;;;;;;4947342;28;21894;-72
2021/03/21 12:02:52;;;;;;;;;;;9.50;86.90;;;;;;4947596;28;20418;-72
2021/03/21 12:05:18;;;;;;;;;;;9.50;87.00;;;;;;4954546;28;20012;-73
2021/03/21 12:07:47;;;;;;;;;;;9.50;88.80;;;;;;4964298;28;19965;-73
2021/03/21 12:10:31;;;;;;;;;;;9.50;88.60;;;;;;4945801;28;19909;-73
2021/03/21 12:13:02;;;;;;;;;;;9.60;88.60;;;;;;4964518;28;19914;-73
2021/03/21 12:15:27;;;;;;;;;;;9.50;84.30;;;;;;4947230;28;19914;-73
2021/03/21 12:18:02;;;;;;;;;;;9.40;84.90;;;;;;4965683;28;19910;-73
2021/03/21 12:20:41;;;;;;;;;;;9.30;82.40;;;;;;4965121;28;19942;-73
2021/03/21 12:23:06;;;;;;;;;;;9.20;84.80;;;;;;4929487;28;19918;-73
2021/03/21 12:25:36;;;;;;;;;;;9.30;85.10;;;;;;4949473;28;19918;-73
2021/03/21 12:28:11;;;;;;;;;;;9.50;82.30;;;;;;4947851;28;20110;-73
2021/03/21 12:30:40;;;;;;;;;;;9.50;80.70;;;;;;4966914;28;19917;-72
2021/03/21 12:33:13;;;;;;;;;;;9.40;77.00;;;;;;4950600;28;20347;-72
2021/03/21 12:35:41;;;;;;;;;;;9.40;77.00;;;;;;4624085;28;10000295;-72
2021/03/21 12:38:12;;;;;;;;;;;9.50;76.90;;;;;;4946415;28;19993;-72
2021/03/21 12:40:41;;;;;;;;;;;9.60;78.00;;;;;;4947235;28;19914;-72
2021/03/21 12:43:24;;;;;;;;;;;9.70;77.90;;;;;;4966182;28;19965;-72
2021/03/21 12:46:08;;;;;;;;;;;9.60;76.80;;;;;;4965703;28;19967;-72
2021/03/21 12:48:49;;;;;;;;;;;9.50;79.30;;;;;;4966191;28;19918;-72
2021/03/21 12:51:28;;;;;;;;;;;9.50;78.70;;;;;;4965166;28;19914;-72
2021/03/21 12:53:54;;;;;;;;;;;9.40;79.30;;;;;;4964493;28;19957;-73
2021/03/21 12:56:19;;;;;;;;;;;9.40;81.40;;;;;;4967157;28;19945;-72
2021/03/21 12:58:47;;;;;;;;;;;9.50;79.40;;;;;;4967856;28;19914;-73
2021/03/21 13:01:13;;;;;;;;;;;9.70;81.10;;;;;;4972632;28;19917;-73
2021/03/21 13:03:41;;;;;;;;;;;9.80;78.10;;;;;;4971152;28;19910;-73
2021/03/21 13:06:06;;;;;;;;;;;9.80;78.50;;;;;;4970516;28;19964;-73
2021/03/21 13:08:32;;;;;;;;;;;9.90;76.20;;;;;;4969767;28;19969;-73
2021/03/21 13:10:58;;;;;;;;;;;9.90;74.30;;;;;;4970677;28;19934;-73
2021/03/21 13:13:26;;;;;;;;;;;10.00;75.70;;;;;;4948305;28;19972;-74
2021/03/21 13:15:55;;;;;;;;;;;9.90;74.40;;;;;;4936279;28;19989;-73
2021/03/21 13:18:21;;;;;;;;;;;10.00;77.60;;;;;;4953124;28;19992;-73
2021/03/21 13:20:47;;;;;;;;;;;10.10;75.60;;;;;;4973252;28;19967;-74
2021/03/21 13:23:15;;;;;;;;;;;10.20;75.90;;;;;;4972384;28;20295;-73
2021/03/21 13:25:41;;;;;;;;;;;10.30;77.60;;;;;;4939242;28;19914;-73
2021/03/21 13:28:06;;;;;;;;;;;10.30;74.00;;;;;;4970457;28;19980;-73
2021/03/21 13:30:38;;;;;;;;;;;10.20;71.70;;;;;;4953870;28;19918;-73
2021/03/21 13:33:06;;;;;;;;;;;10.00;70.80;;;;;;4954611;28;19921;-73
2021/03/21 13:35:32;;;;;;;;;;;10.00;72.60;;;;;;4955318;28;19917;-74
2021/03/21 13:37:58;;;;;;;;;;;10.00;72.40;;;;;;4954417;28;20000;-73
2021/03/21 13:40:28;;;;;;;;;;;10.00;73.90;;;;;;4950593;28;19913;-73
2021/03/21 13:42:53;;;;;;;;;;;10.00;73.30;;;;;;4935674;28;19988;-73
2021/03/21 13:45:19;;;;;;;;;;;9.90;74.30;;;;;;4954180;28;19914;-73
2021/03/21 13:47:47;;;;;;;;;;;9.90;72.80;;;;;;4952718;28;19978;-73
2021/03/21 13:50:15;;;;;;;;;;;9.90;74.10;;;;;;4967830;28;20508;-73
2021/03/21 13:52:40;;;;;;;;;;;9.90;73.00;;;;;;4971802;28;19910;-73
2021/03/21 13:55:07;;;;;;;;;;;9.80;74.30;;;;;;4971060;28;20484;-73
2021/03/21 13:57:32;;;;;;;;;;;9.90;73.40;;;;;;4953675;28;19914;-73
2021/03/21 14:00:00;;;;;;;;;;;9.90;72.60;;;;;;4971725;28;19933;-73
2021/03/21 14:02:28;;;;;;;;;;;9.90;70.30;;;;;;4938054;28;19925;-73
2021/03/21 14:04:56;;;;;;;;;;;10.00;71.50;;;;;;4935622;28;19936;-73
2021/03/21 14:07:21;;;;;;;;;;;10.10;70.00;;;;;;4971978;28;19979;-73
2021/03/21 14:09:47;;;;;;;;;;;10.10;69.60;;;;;;4971202;28;19933;-73
2021/03/21 14:12:15;;;;;;;;;;;10.00;69.20;;;;;;4953154;28;20036;-73
2021/03/21 14:14:40;;;;;;;;;;;10.00;69.50;;;;;;4970772;28;20000;-73
2021/03/21 14:17:06;;;;;;;;;;;10.00;71.80;;;;;;4971757;28;20053;-72
2021/03/21 14:19:32;;;;;;;;;;;10.00;70.70;;;;;;4971682;28;19925;-73
2021/03/21 14:22:00;;;;;;;;;;;10.10;70.50;;;;;;4968799;28;19910;-73
2021/03/21 14:24:25;;;;;;;;;;;10.00;69.80;;;;;;4952147;28;20375;-73
2021/03/21 14:26:51;;;;;;;;;;;9.80;68.50;;;;;;4953909;28;19918;-73
2021/03/21 14:29:16;;;;;;;;;;;9.70;70.70;;;;;;4953654;28;20328;-73
2021/03/21 14:31:44;;;;;;;;;;;9.60;69.30;;;;;;4970917;28;20449;-73
2021/03/21 14:34:10;;;;;;;;;;;9.50;69.00;;;;;;4970800;28;19945;-73
2021/03/21 14:36:35;;;;;;;;;;;9.40;68.90;;;;;;4972028;28;19910;-73
2021/03/21 14:39:01;;;;;;;;;;;9.30;69.40;;;;;;4954842;28;19972;-72
2021/03/21 14:41:27;;;;;;;;;;;9.10;69.80;;;;;;4955210;28;20419;-73
2021/03/21 14:43:54;;;;;;;;;;;9.00;69.90;;;;;;4971028;28;20052;-73
2021/03/21 14:46:22;;;;;;;;;;;9.00;70.90;;;;;;4971095;28;19969;-73
2021/03/21 14:48:48;;;;;;;;;;;8.90;70.90;;;;;;4971643;28;19921;-73
2021/03/21 14:51:13;;;;;;;;;;;8.90;72.70;;;;;;4954282;28;19910;-73